Date,TemperatureHighF,TemperatureAvgF,TemperatureLowF,DewpointHighF,DewpointAvgF,DewpointLowF,HumidityHigh,HumidityAvg,HumidityLow,PressureMaxIn,PressureMinIn,WindSpeedMaxMPH,WindSpeedAvgMPH,GustSpeedMaxMPH,PrecipitationSumIn
2013-1-1,22,17,11,18,10,6,92,76,62,30.27,30.11,16,4,16,0.00
2013-1-2,28,19,9,19,12,5,92,74,55,30.22,30.10,22,8,22,0.00
2013-1-3,30,25,15,26,20,11,92,81,68,30.33,30.11,24,8,27,0.00
2013-1-4,33,23,12,25,18,8,87,80,69,30.32,30.22,25,9,25,0.00
2013-1-5,36,31,26,33,28,21,94,85,75,30.23,29.95,24,9,24,0.00
2013-1-6,36,26,19,33,22,15,92,83,77,30.33,29.93,25,8,25,0.00
2013-1-7,40,31,22,30,25,18,87,79,64,30.33,30.09,27,10,27,0.00
2013-1-8,46,37,31,34,30,26,89,74,60,30.14,30.01,27,9,27,0.00
2013-1-9,48,40,34,36,32,27,88,73,49,30.47,30.01,24,6,24,0.00
2013-1-10,51,37,29,50,32,24,98,82,61,30.47,29.75,19,2,19,0.56
2013-1-11,56,52,46,53,49,46,98,92,83,29.77,29.63,35,12,35,0.52
2013-1-12,53,40,24,49,36,22,92,83,76,29.96,29.66,33,11,35,0.00
2013-1-13,26,18,13,22,14,9,93,84,78,30.27,29.89,21,9,21,0.00
2013-1-14,24,17,12,16,12,8,92,80,66,30.46,30.27,13,3,13,0.00
2013-1-15,29,19,14,19,13,9,89,78,62,30.42,30.11,6,0,9,0.01
2013-1-16,37,28,17,29,21,12,88,74,59,30.11,29.87,21,8,29,0.00
2013-1-17,36,29,24,30,22,17,91,76,56,30.41,30.03,21,5,21,0.00
2013-1-18,45,36,24,33,26,18,79,69,61,30.41,29.94,43,14,43,0.01
2013-1-19,51,43,29,39,33,17,76,68,61,30.04,29.75,33,14,35,0.00
2013-1-20,32,18,14,17,10,6,86,71,53,30.31,30.01,35,11,35,0.00
2013-1-21,14,8,4,9,0,-5,81,70,49,30.35,30.21,28,12,28,0.00
2013-1-22,14,11,1,3,-1,-5,78,60,49,30.44,30.33,21,6,21,0.00
2013-1-23,32,20,12,18,9,2,77,63,50,30.35,30.09,27,7,27,0.00
2013-1-24,22,16,6,10,4,-2,81,62,50,30.62,30.27,21,2,23,0.00
2013-1-25,36,26,19,22,15,8,78,64,50,30.33,29.99,25,7,25,0.00
2013-1-26,30,21,11,18,11,6,82,66,48,30.39,30.18,13,2,13,0.00
2013-1-27,44,33,27,44,28,17,100,82,66,30.32,29.83,24,5,28,0.15
2013-1-28,57,49,43,57,49,42,100,98,97,29.89,29.70,29,7,29,0.02
2013-1-29,64,58,51,61,56,51,100,96,88,29.72,29.34,37,10,37,1.29
2013-1-30,51,31,18,49,30,13,99,93,81,29.71,29.21,33,12,33,0.22
2013-1-31,21,13,4,18,8,-3,92,80,70,30.28,29.69,30,14,34,0.00
2013-2-1,21,9,1,19,2,-4,98,74,64,30.43,30.16,25,10,27,0.00
2013-2-2,27,21,16,25,17,10,93,85,76,30.18,30.01,23,7,23,0.00
2013-2-3,28,23,16,21,17,11,94,79,63,30.08,29.95,27,6,27,0.00
2013-2-4,35,28,19,27,22,16,96,78,66,29.98,29.76,22,4,22,0.00
2013-2-5,38,29,18,32,25,15,91,85,76,30.06,29.82,23,7,23,0.00
2013-2-6,44,36,26,34,30,24,92,79,66,30.18,30.02,25,3,25,0.00
2013-2-7,37,36,32,36,34,31,97,92,81,30.02,29.82,22,5,25,0.49
2013-2-8,34,27,25,31,24,22,95,87,84,30.36,29.96,25,4,25,0.00
2013-2-9,37,31,27,32,27,23,92,83,76,30.35,29.99,24,5,25,0.00
2013-2-10,49,43,36,48,40,31,96,89,65,30.00,29.44,39,12,39,0.47
2013-2-11,44,34,30,33,26,24,80,73,68,30.07,29.53,39,16,39,0.00
2013-2-12,38,31,27,28,25,23,86,79,65,30.11,29.90,19,5,19,0.00
2013-2-13,45,36,29,34,30,25,87,77,60,29.90,29.70,19,7,19,0.00
2013-2-14,41,37,33,33,31,29,91,78,72,29.97,29.65,28,10,28,0.00
2013-2-15,33,27,20,31,19,14,91,71,47,30.20,29.97,22,10,22,0.00
2013-2-16,27,20,14,16,12,7,80,71,58,30.20,30.12,24,8,24,0.00
2013-2-17,37,25,12,24,15,7,78,67,53,30.18,29.87,26,3,26,0.00
2013-2-18,53,40,23,47,34,19,95,78,64,29.88,29.40,36,14,36,0.33
2013-2-19,24,18,12,19,11,7,84,76,65,30.25,29.69,37,18,37,0.00
2013-2-20,20,14,6,15,8,0,92,78,66,30.40,30.23,22,6,22,0.00
2013-2-21,29,22,14,25,19,11,95,86,79,30.35,29.85,28,4,28,0.00
2013-2-22,32,28,26,31,26,22,97,92,83,29.94,29.74,27,7,27,0.03
2013-2-23,29,25,22,22,19,17,83,79,72,29.98,29.93,19,6,19,0.02
2013-2-24,39,29,19,27,22,16,88,76,59,30.09,29.97,9,1,9,0.04
2013-2-25,43,34,25,35,29,23,93,81,68,30.09,29.81,19,2,19,0.00
2013-2-26,35,33,31,32,30,28,98,92,77,29.83,29.45,29,5,29,0.07
2013-2-27,32,30,29,31,30,29,100,98,98,29.75,29.54,0,0,0,0.01
2013-2-28,33,32,30,32,31,29,98,98,97,30.04,29.76,15,4,16,0.04
2013-3-1,31,26,24,29,24,21,98,90,84,30.19,30.04,18,4,18,0.00
2013-3-2,26,22,15,22,16,11,92,79,63,30.22,30.15,20,6,20,0.00
2013-3-3,32,22,11,17,13,9,92,69,47,30.18,30.05,7,0,7,0.06
2013-3-4,36,30,25,31,25,14,92,79,64,30.06,29.87,24,3,24,0.04
2013-3-5,34,32,29,31,30,28,97,93,86,29.88,29.80,14,1,14,0.04
2013-3-6,29,27,24,26,23,21,96,87,81,30.32,30.02,15,10,24,0.01
2013-3-7,36,31,24,27,25,22,90,79,68,30.40,30.31,12,1,12,0.03
2013-3-8,43,34,24,34,29,22,93,82,69,30.41,30.19,22,1,22,0.01
2013-3-9,52,42,36,42,37,32,97,81,63,30.22,29.72,28,5,28,0.31
2013-3-10,53,49,44,51,48,41,98,95,77,29.77,29.51,28,6,28,29.88
2013-3-11,46,36,30,46,34,26,98,94,84,29.87,29.57,28,11,28,79.31
2013-3-12,37,30,26,33,25,19,96,82,71,30.09,29.87,27,11,34,0.00
2013-3-13,31,25,22,22,20,18,91,82,64,30.32,30.08,25,12,25,0.00
2013-3-14,44,37,25,31,28,20,82,68,55,30.34,30.03,21,4,22,0.00
2013-3-15,52,42,32,43,36,29,91,80,59,30.03,29.63,19,3,20,0.00
2013-3-16,42,35,30,40,31,26,100,86,74,30.08,29.61,22,4,22,0.00
2013-3-17,36,32,29,29,26,23,89,78,71,30.13,29.86,20,4,20,0.00
2013-3-18,38,31,25,35,28,16,96,86,67,29.88,29.64,36,10,36,0.09
2013-3-19,38,28,19,21,15,10,76,60,40,30.12,29.84,30,13,35,0.00
2013-3-20,28,22,15,21,11,6,79,62,46,30.17,30.06,30,14,30,0.00
2013-3-21,34,24,12,16,12,8,85,62,41,30.09,29.97,19,3,21,0.00
2013-3-22,42,32,21,24,18,16,87,59,37,30.02,29.94,10,1,11,0.00
2013-3-23,46,37,30,27,24,22,76,62,45,30.04,29.91,14,2,16,0.00
2013-3-24,33,30,29,31,29,25,97,94,73,29.93,29.62,19,5,19,0.00
2013-3-25,36,31,27,29,27,25,97,87,75,30.09,29.73,25,9,25,0.09
2013-3-26,37,34,30,29,27,25,86,76,62,30.26,30.09,20,6,20,0.04
2013-3-27,43,36,29,28,25,22,92,66,47,30.32,30.26,14,3,14,0.00
2013-3-28,51,40,30,33,28,24,78,64,45,30.34,30.24,12,1,12,0.00
2013-3-29,57,47,36,35,32,30,83,59,40,30.26,30.16,10,0,12,0.00
2013-3-30,56,48,37,44,38,33,92,70,56,30.16,29.80,27,6,27,0.00
2013-3-31,59,49,37,46,39,28,93,70,38,29.89,29.73,31,11,31,0.00
2013-4-1,41,34,28,28,22,17,83,61,39,30.20,29.89,26,10,26,0.00
2013-4-2,46,34,23,23,18,12,81,56,27,30.29,30.20,24,5,24,0.00
2013-4-3,50,38,26,22,19,14,71,48,24,30.42,30.24,13,1,13,0.00
2013-4-4,59,46,31,28,23,20,72,43,24,30.24,29.96,15,2,18,0.00
2013-4-5,58,47,35,35,28,20,80,51,24,30.16,29.98,15,2,15,0.00
2013-4-6,70,57,41,51,36,23,78,47,31,30.02,29.57,42,12,42,0.01
2013-4-7,68,54,42,48,44,40,93,70,42,29.90,29.65,18,4,19,0.00
2013-4-8,71,62,53,59,54,41,95,77,57,29.81,29.53,33,7,37,0.63
2013-4-9,77,65,50,62,58,46,95,77,56,29.82,29.73,29,6,29,0.00
2013-4-10,52,44,40,46,42,38,98,95,87,29.87,29.68,26,6,28,1.28
2013-4-11,49,44,37,47,41,32,99,92,79,29.69,29.54,25,7,25,0.08
2013-4-12,42,39,37,37,34,32,93,82,73,29.89,29.55,26,10,28,0.01
2013-4-13,50,43,35,37,32,25,86,66,51,29.96,29.87,26,8,26,0.00
2013-4-14,75,60,44,54,45,35,82,60,37,29.91,29.54,38,8,40,0.00
2013-4-15,66,58,55,55,53,46,97,86,60,29.81,29.56,37,9,40,0.77
2013-4-16,52,49,40,44,39,36,94,68,57,30.14,29.90,12,3,20,0.15
2013-4-17,57,48,44,57,44,36,99,87,72,30.17,29.63,31,4,36,4.25
2013-4-18,63,53,38,62,51,32,100,95,78,29.69,29.37,38,10,38,1.83
2013-4-19,40,37,35,34,30,27,90,76,70,29.94,29.52,34,14,34,0.00
2013-4-20,48,39,30,31,28,24,92,66,44,30.32,29.94,20,3,22,0.00
2013-4-21,58,47,38,41,34,29,73,62,52,30.39,30.22,26,3,26,0.00
2013-4-22,68,57,46,47,38,34,65,51,33,30.24,29.94,25,5,25,0.00
2013-4-23,62,46,38,51,43,36,96,90,66,29.98,29.85,21,6,21,0.61
2013-4-24,49,42,36,38,33,29,96,74,48,30.12,29.93,20,8,20,0.02
2013-4-25,54,46,40,35,31,25,80,56,37,30.26,30.07,28,9,28,0.00
2013-4-26,63,54,44,48,41,32,81,62,54,30.27,30.19,31,9,31,0.00
2013-4-27,64,55,47,51,47,43,95,77,50,30.24,29.92,18,1,18,0.02
2013-4-28,68,58,52,54,52,51,98,83,56,29.93,29.78,19,3,20,0.00
2013-4-29,75,68,50,61,57,48,94,69,58,29.85,29.67,28,9,28,0.00
2013-4-30,85,72,62,62,58,53,90,64,34,29.86,29.67,23,11,30,0.00
2013-5-1,83,74,64,58,55,49,77,53,33,30.03,29.85,23,6,23,0.00
2013-5-2,72,61,47,58,53,43,94,76,57,30.11,30.00,25,3,25,0.07
2013-5-3,59,50,43,59,49,42,99,98,94,30.07,29.77,19,3,19,0.89
2013-5-4,65,59,54,61,57,53,99,92,75,29.97,29.78,16,1,19,0.20
2013-5-5,74,60,52,56,52,46,98,78,38,29.96,29.85,16,1,16,0.01
2013-5-6,76,65,54,53,47,39,90,55,29,29.96,29.88,19,2,19,0.00
2013-5-7,79,67,53,48,41,30,66,41,21,29.97,29.90,10,0,10,0.00
2013-5-8,80,69,57,56,49,43,82,52,30,29.96,29.88,11,0,11,0.00
2013-5-9,72,64,61,63,60,53,99,86,63,29.90,29.73,24,2,24,0.43
2013-5-10,63,54,49,62,52,47,97,93,87,29.93,29.73,20,4,20,0.00
2013-5-11,59,52,44,52,40,28,95,67,35,30.04,29.85,37,10,37,0.19
2013-5-12,57,48,38,32,29,24,74,50,32,30.11,30.03,29,7,29,0.00
2013-5-13,68,56,41,42,34,28,69,46,27,30.12,29.93,18,2,18,0.00
2013-5-14,88,72,56,65,54,40,71,54,41,29.94,29.61,26,10,28,0.00
2013-5-15,82,76,70,61,56,48,70,51,36,29.78,29.63,34,5,34,0.00
2013-5-16,84,70,62,63,54,47,78,57,36,29.87,29.75,12,1,21,0.10
2013-5-17,80,71,62,65,60,57,95,71,48,29.93,29.85,14,2,16,0.20
2013-5-18,81,72,64,68,64,62,98,80,55,29.96,29.83,14,0,14,0.01
2013-5-19,88,76,65,71,67,62,93,75,55,29.85,29.65,27,2,27,0.00
2013-5-20,82,74,63,71,63,61,94,69,50,29.76,29.61,27,10,36,0.62
2013-5-21,80,71,63,65,62,60,92,75,54,29.67,29.60,25,9,25,18.22
2013-5-22,71,65,59,63,58,55,93,78,60,29.75,29.57,25,4,25,0.17
2013-5-23,60,57,55,56,55,53,97,92,81,30.01,29.74,18,5,18,0.03
2013-5-24,66,54,40,48,42,36,91,66,42,30.38,30.19,3,1,16,0.01
2013-5-25,54,50,47,50,44,36,96,81,60,30.35,30.19,5,1,16,0.33
2013-5-26,63,55,49,59,53,48,98,93,86,30.20,30.00,7,1,20,0.94
2013-5-27,68,62,58,66,61,57,99,96,90,30.03,29.74,2,1,19,0.75
2013-5-28,72,67,66,69,65,63,96,93,88,29.77,29.65,21,7,35,0.17
2013-5-29,84,74,62,71,66,61,96,78,60,29.89,29.74,13,6,28,0.28
2013-5-30,83,73,62,71,66,60,97,79,63,29.83,29.66,40,8,40,0.61
2013-5-31,74,68,63,72,65,62,97,91,79,29.81,29.64,22,5,27,0.70
2013-6-1,73,67,62,68,63,59,95,88,70,29.75,29.62,27,8,27,0.38
2013-6-2,62,60,54,60,56,50,94,89,75,30.00,29.73,20,6,23,0.01
2013-6-3,67,58,49,52,49,43,96,72,54,30.07,29.97,12,0,12,0.00
2013-6-4,73,63,51,57,52,47,89,69,51,30.07,29.96,14,0,14,0.00
2013-6-5,77,67,56,62,58,52,89,73,55,30.00,29.82,8,0,8,0.00
2013-6-6,71,63,57,61,57,53,94,81,68,29.85,29.78,14,2,14,0.03
2013-6-7,73,64,54,58,54,49,87,70,55,29.88,29.83,16,1,16,0.00
2013-6-8,76,64,54,57,50,43,76,62,48,29.91,29.86,9,0,9,0.00